createdAt,value
2023-01-19T00:02:11.409Z,4.90
2023-01-19T00:05:53.128Z,4.90
2023-01-19T00:09:38.410Z,4.90
2023-01-19T00:13:20.101Z,4.90
2023-01-19T00:17:01.901Z,4.80
2023-01-19T00:20:45.778Z,4.80
2023-01-19T00:24:27.386Z,4.70
2023-01-19T00:28:13.214Z,4.70
2023-01-19T00:31:55.327Z,4.70
2023-01-19T00:35:37.109Z,4.70
2023-01-19T00:39:19.347Z,4.70
2023-01-19T00:43:01.543Z,4.70
2023-01-19T00:46:43.545Z,4.70
2023-01-19T00:50:26.428Z,4.70
2023-01-19T00:54:10.419Z,4.70
2023-01-19T00:57:52.169Z,4.70
2023-01-19T01:01:46.218Z,4.70
2023-01-19T01:05:28.303Z,4.70
2023-01-19T01:09:13.240Z,4.60
2023-01-19T01:12:57.692Z,4.60
2023-01-19T01:16:40.332Z,4.50
2023-01-19T01:20:27.837Z,4.50
2023-01-19T01:24:10.957Z,4.50
2023-01-19T01:27:53.199Z,4.50
2023-01-19T01:31:35.227Z,4.50
2023-01-19T01:35:17.018Z,4.50
2023-01-19T01:39:00.048Z,4.40
2023-01-19T01:42:42.525Z,4.40
2023-01-19T01:46:24.670Z,4.30
2023-01-19T01:50:16.448Z,4.30
2023-01-19T01:54:18.893Z,4.20
2023-01-19T01:58:04.151Z,4.20
2023-01-19T02:02:04.681Z,4.20
2023-01-19T02:05:46.682Z,4.20
2023-01-19T02:09:46.935Z,4.20
2023-01-19T02:13:30.584Z,4.20
2023-01-19T02:17:13.206Z,4.20
2023-01-19T02:21:19.342Z,4.10
2023-01-19T02:25:01.116Z,4.10
2023-01-19T02:28:48.361Z,4.00
2023-01-19T02:32:30.246Z,4.00
2023-01-19T02:36:12.541Z,4.00
2023-01-19T02:39:58.916Z,4.00
2023-01-19T02:43:41.041Z,4.00
2023-01-19T02:47:23.221Z,4.00
2023-01-19T02:51:21.230Z,4.00
2023-01-19T02:55:13.335Z,3.90
2023-01-19T02:59:37.189Z,3.90
2023-01-19T03:03:39.182Z,3.90
2023-01-19T03:07:39.904Z,3.90
2023-01-19T03:11:21.686Z,3.80
2023-01-19T03:15:19.044Z,3.70
2023-01-19T03:19:20.135Z,3.70
2023-01-19T03:23:03.340Z,3.60
2023-01-19T03:26:48.901Z,3.60
2023-01-19T03:30:41.700Z,3.60
2023-01-19T03:34:23.996Z,3.60
2023-01-19T03:38:08.665Z,3.60
2023-01-19T03:41:53.235Z,3.50
2023-01-19T03:45:36.918Z,3.50
2023-01-19T03:49:19.854Z,3.50
2023-01-19T03:53:02.640Z,3.40
2023-01-19T03:56:44.711Z,3.40
2023-01-19T04:00:27.727Z,3.40
2023-01-19T04:04:09.447Z,3.40
2023-01-19T04:07:51.932Z,3.30
2023-01-19T04:11:33.978Z,3.30
2023-01-19T04:15:15.740Z,3.30
2023-01-19T04:18:57.735Z,3.30
2023-01-19T04:22:39.632Z,3.30
2023-01-19T04:26:21.390Z,3.30
2023-01-19T04:30:04.211Z,3.30
2023-01-19T04:33:45.886Z,3.40
2023-01-19T04:37:27.737Z,3.40
2023-01-19T04:41:09.934Z,3.40
2023-01-19T04:44:52.555Z,3.50
2023-01-19T04:48:34.249Z,3.50
2023-01-19T04:52:15.923Z,3.50
2023-01-19T04:55:59.601Z,3.50
2023-01-19T04:59:42.468Z,3.50
2023-01-19T05:03:25.799Z,3.40
2023-01-19T05:07:08.258Z,3.50
2023-01-19T05:10:51.246Z,3.50
2023-01-19T05:14:32.944Z,3.50
2023-01-19T05:18:14.743Z,3.50
2023-01-19T05:21:56.959Z,3.50
2023-01-19T05:25:38.659Z,3.50
2023-01-19T05:29:20.453Z,3.50
2023-01-19T05:33:02.537Z,3.60
2023-01-19T05:36:44.430Z,3.60
2023-01-19T05:40:26.335Z,3.60
2023-01-19T05:44:09.200Z,3.70
2023-01-19T05:47:50.946Z,3.70
2023-01-19T05:51:37.818Z,3.60
2023-01-19T05:55:20.326Z,3.70
2023-01-19T05:59:03.248Z,3.70
2023-01-19T06:02:45.094Z,3.70
2023-01-19T06:06:26.798Z,3.70
2023-01-19T06:10:09.827Z,3.70
2023-01-19T06:13:51.499Z,3.70
2023-01-19T06:17:33.456Z,3.70
2023-01-19T06:21:15.360Z,3.70
2023-01-19T06:24:57.027Z,3.70
2023-01-19T06:28:38.755Z,3.70
2023-01-19T06:32:20.416Z,3.70
2023-01-19T06:36:02.163Z,3.70
2023-01-19T06:39:45.393Z,3.80
2023-01-19T06:43:27.259Z,3.80
2023-01-19T06:47:14.907Z,3.70
2023-01-19T06:50:59.494Z,3.80
2023-01-19T06:54:43.195Z,3.80
2023-01-19T06:58:27.716Z,3.80
2023-01-19T07:02:26.966Z,3.80
2023-01-19T07:06:10.050Z,3.80
2023-01-19T07:09:54.081Z,3.80
2023-01-19T07:13:36.845Z,3.80
2023-01-19T07:17:18.845Z,3.80
2023-01-19T07:21:00.727Z,3.90
2023-01-19T07:24:42.476Z,3.80
2023-01-19T07:28:24.714Z,3.90
2023-01-19T07:32:07.521Z,3.90
2023-01-19T07:35:49.534Z,3.90
2023-01-19T07:39:32.007Z,3.90
2023-01-19T07:43:14.159Z,3.90
2023-01-19T07:46:55.933Z,3.90
2023-01-19T07:50:37.797Z,3.90
2023-01-19T07:54:20.757Z,3.90
2023-01-19T07:58:06.480Z,3.90
2023-01-19T08:01:48.515Z,3.90
2023-01-19T08:05:30.300Z,3.90
2023-01-19T08:09:14.267Z,3.90
2023-01-19T08:12:56.675Z,3.90
2023-01-19T08:16:38.429Z,3.90
2023-01-19T08:20:20.299Z,3.90
2023-01-19T08:24:02.059Z,3.90
2023-01-19T08:27:44.580Z,4.00
2023-01-19T08:31:26.822Z,4.00
2023-01-19T08:35:09.276Z,4.00
2023-01-19T08:38:51.069Z,4.00
2023-01-19T08:42:32.743Z,4.10
2023-01-19T08:46:18.875Z,4.10
2023-01-19T08:50:00.745Z,4.10
2023-01-19T08:53:43.052Z,4.10
2023-01-19T08:57:24.839Z,4.10
2023-01-19T09:01:08.619Z,4.10
2023-01-19T09:04:50.297Z,4.10
2023-01-19T09:08:31.970Z,4.10
2023-01-19T09:12:13.828Z,4.10
2023-01-19T09:15:55.539Z,4.00
2023-01-19T09:19:37.334Z,4.10
2023-01-19T09:23:20.086Z,4.10
2023-01-19T09:27:01.810Z,4.10
2023-01-19T09:30:44.204Z,4.10
2023-01-19T09:34:26.018Z,4.10
2023-01-19T09:38:08.897Z,4.20
2023-01-19T09:41:59.634Z,4.20
2023-01-19T09:45:53.730Z,4.40
2023-01-19T09:49:36.889Z,4.50
2023-01-19T09:53:23.895Z,4.70
2023-01-19T09:57:10.020Z,4.80
2023-01-19T10:00:56.567Z,4.90
2023-01-19T10:05:05.710Z,5.00
2023-01-19T10:08:52.542Z,5.20
2023-01-19T10:12:53.849Z,5.40
2023-01-19T10:16:51.188Z,5.50
2023-01-19T10:20:44.621Z,5.60
2023-01-19T10:24:40.035Z,5.70
2023-01-19T10:28:23.805Z,5.80
2023-01-19T10:32:20.058Z,5.80
2023-01-19T10:36:06.652Z,5.90
2023-01-19T10:40:05.906Z,5.90
2023-01-19T10:43:47.806Z,6.00
2023-01-19T10:47:36.064Z,6.10
2023-01-19T10:51:18.318Z,6.20
2023-01-19T10:55:01.363Z,6.30
2023-01-19T10:58:43.195Z,6.40
2023-01-19T11:02:29.365Z,6.50
2023-01-19T11:06:15.403Z,6.70
2023-01-19T11:10:15.644Z,6.80
2023-01-19T11:14:08.900Z,7.00
2023-01-19T11:17:50.632Z,7.10
2023-01-19T11:21:32.432Z,7.20
2023-01-19T11:25:22.086Z,7.40
2023-01-19T11:29:04.053Z,7.40
2023-01-19T11:32:46.240Z,7.50
2023-01-19T11:36:32.265Z,7.60
2023-01-19T11:40:15.722Z,7.60
2023-01-19T11:44:20.433Z,7.70
2023-01-19T11:48:04.307Z,7.80
2023-01-19T11:52:21.960Z,7.90
2023-01-19T11:56:08.517Z,8.00
2023-01-19T11:59:52.944Z,8.20
2023-01-19T12:03:42.042Z,8.40
2023-01-19T12:07:28.126Z,8.60
2023-01-19T12:11:12.344Z,8.60
2023-01-19T12:15:29.075Z,8.60
2023-01-19T12:19:16.465Z,8.50
2023-01-19T12:22:59.923Z,8.50
2023-01-19T12:26:57.718Z,8.60
2023-01-19T12:30:39.575Z,8.50
2023-01-19T12:34:35.988Z,8.60
2023-01-19T12:38:24.539Z,8.60
2023-01-19T12:42:14.599Z,8.70
2023-01-19T12:45:56.352Z,8.70
2023-01-19T12:49:38.085Z,8.70
2023-01-19T12:53:20.441Z,8.70
2023-01-19T12:57:04.436Z,8.70
2023-01-19T13:00:47.276Z,8.70
2023-01-19T13:04:33.199Z,8.70
2023-01-19T13:08:16.501Z,8.80
2023-01-19T13:12:30.709Z,8.70
2023-01-19T13:16:18.628Z,8.80
2023-01-19T13:20:21.908Z,8.80
2023-01-19T13:24:08.139Z,8.80
2023-01-19T13:27:50.022Z,8.80
2023-01-19T13:31:36.032Z,8.80
2023-01-19T13:35:18.683Z,8.90
2023-01-19T13:39:03.082Z,8.90
2023-01-19T13:42:44.753Z,8.90
2023-01-19T13:46:26.553Z,9.00
2023-01-19T13:50:28.000Z,9.00
2023-01-19T13:54:15.553Z,9.00
2023-01-19T13:57:57.309Z,9.00
2023-01-19T14:01:40.998Z,9.10
2023-01-19T14:05:24.207Z,9.00
2023-01-19T14:09:17.383Z,9.10
2023-01-19T14:13:00.174Z,9.10
2023-01-19T14:16:41.931Z,9.10
2023-01-19T14:20:30.491Z,9.00
2023-01-19T14:24:17.872Z,9.00
2023-01-19T14:28:27.890Z,9.00
2023-01-19T14:32:14.821Z,9.10
2023-01-19T14:35:56.578Z,9.10
2023-01-19T14:39:38.292Z,9.10
2023-01-19T14:43:21.980Z,9.10
2023-01-19T14:47:04.712Z,9.00
2023-01-19T14:51:01.974Z,9.10
2023-01-19T14:54:44.334Z,9.00
2023-01-19T14:58:26.734Z,9.10
2023-01-19T15:02:09.113Z,9.10
2023-01-19T15:05:51.024Z,9.10
2023-01-19T15:09:32.799Z,9.10
2023-01-19T15:13:21.851Z,9.10
2023-01-19T15:17:03.622Z,9.10
2023-01-19T15:20:45.388Z,9.10
2023-01-19T15:24:27.126Z,9.10
2023-01-19T15:28:13.039Z,9.10
2023-01-19T15:31:54.830Z,9.10
2023-01-19T15:35:36.571Z,9.00
2023-01-19T15:39:18.365Z,9.00
2023-01-19T15:43:00.039Z,9.00
2023-01-19T15:46:41.730Z,9.00
2023-01-19T15:50:24.646Z,9.00
2023-01-19T15:54:08.566Z,9.00
2023-01-19T15:57:50.144Z,9.00
2023-01-19T16:01:32.829Z,9.00
2023-01-19T16:05:14.830Z,9.10
2023-01-19T16:09:01.056Z,9.20
2023-01-19T16:12:43.947Z,9.30
2023-01-19T16:16:25.911Z,9.50
2023-01-19T16:20:08.517Z,9.50
2023-01-19T16:23:50.584Z,9.50
2023-01-19T16:27:32.282Z,9.40
2023-01-19T16:31:15.119Z,9.20
2023-01-19T16:34:56.874Z,9.10
2023-01-19T16:38:38.735Z,9.00
2023-01-19T16:42:20.500Z,9.00
2023-01-19T16:46:02.741Z,8.90
2023-01-19T16:49:44.750Z,8.80
2023-01-19T16:53:27.059Z,8.80
2023-01-19T16:57:08.841Z,8.70
2023-01-19T17:00:50.931Z,8.60
2023-01-19T17:04:32.894Z,8.50
2023-01-19T17:08:14.598Z,8.50
2023-01-19T17:11:58.170Z,8.40
2023-01-19T17:15:39.925Z,8.40
2023-01-19T17:19:22.903Z,8.30
2023-01-19T17:23:04.576Z,8.10
2023-01-19T17:26:48.570Z,8.10
2023-01-19T17:30:30.602Z,8.00
2023-01-19T17:34:12.334Z,7.90
2023-01-19T17:37:54.734Z,7.80
2023-01-19T17:41:36.854Z,7.60
2023-01-19T17:45:18.683Z,7.50
2023-01-19T17:49:03.191Z,7.40
2023-01-19T17:52:44.943Z,7.30
2023-01-19T17:56:29.755Z,7.20
2023-01-19T18:00:14.958Z,7.10
2023-01-19T18:03:57.121Z,7.10
2023-01-19T18:07:39.842Z,7.00
2023-01-19T18:11:22.880Z,6.90
2023-01-19T18:15:05.613Z,6.80
2023-01-19T18:18:49.565Z,6.80
2023-01-19T18:22:32.193Z,6.70
2023-01-19T18:26:16.140Z,6.60
2023-01-19T18:29:57.970Z,6.50
2023-01-19T18:33:39.849Z,6.40
2023-01-19T18:37:21.578Z,6.30
2023-01-19T18:41:04.745Z,6.30
2023-01-19T18:44:46.457Z,6.20
2023-01-19T18:48:28.151Z,6.20
2023-01-19T18:52:09.875Z,6.10
2023-01-19T18:55:52.836Z,6.00
2023-01-19T18:59:34.811Z,6.00
2023-01-19T19:03:16.796Z,5.90
2023-01-19T19:06:58.489Z,5.80
2023-01-19T19:10:40.824Z,5.70
2023-01-19T19:14:22.500Z,5.70
2023-01-19T19:18:04.310Z,5.60
2023-01-19T19:21:46.262Z,5.60
2023-01-19T19:25:27.930Z,5.50
2023-01-19T19:29:09.845Z,5.50
2023-01-19T19:32:56.053Z,5.50
2023-01-19T19:36:37.760Z,5.40
2023-01-19T19:40:19.643Z,5.40
2023-01-19T19:44:01.318Z,5.30
2023-01-19T19:47:43.825Z,5.30
2023-01-19T19:51:27.803Z,5.20
2023-01-19T19:55:10.206Z,5.20
2023-01-19T19:58:53.387Z,5.20
2023-01-19T20:02:35.115Z,5.10
2023-01-19T20:06:20.756Z,5.10
2023-01-19T20:10:02.572Z,5.10
2023-01-19T20:13:44.662Z,5.10
2023-01-19T20:17:26.435Z,5.00
2023-01-19T20:21:19.019Z,5.00
2023-01-19T20:25:00.675Z,5.00
2023-01-19T20:28:42.404Z,5.00
2023-01-19T20:32:24.753Z,4.90
2023-01-19T20:36:06.557Z,4.90
2023-01-19T20:39:48.348Z,4.90
2023-01-19T20:43:30.422Z,4.90
2023-01-19T20:47:12.139Z,4.90
2023-01-19T20:51:04.201Z,4.90
2023-01-19T20:54:45.894Z,5.00
2023-01-19T20:58:27.784Z,5.00
2023-01-19T21:02:14.228Z,5.00
2023-01-19T21:05:58.590Z,5.00
2023-01-19T21:09:42.755Z,4.90
2023-01-19T21:13:24.500Z,5.00
2023-01-19T21:17:06.187Z,5.00
2023-01-19T21:20:49.109Z,4.90
2023-01-19T21:24:30.895Z,4.90
2023-01-19T21:28:12.578Z,4.90
2023-01-19T21:31:54.454Z,4.90
2023-01-19T21:35:36.551Z,4.80
2023-01-19T21:39:18.371Z,4.80
2023-01-19T21:43:00.116Z,4.70
2023-01-19T21:46:41.890Z,4.70
2023-01-19T21:50:23.724Z,4.70
2023-01-19T21:54:06.203Z,4.70
2023-01-19T21:57:47.885Z,4.60
2023-01-19T22:01:33.444Z,4.60
2023-01-19T22:05:15.503Z,4.60
2023-01-19T22:08:58.329Z,4.50
2023-01-19T22:12:40.371Z,4.60
2023-01-19T22:16:22.628Z,4.60
2023-01-19T22:20:04.912Z,4.60
2023-01-19T22:23:53.758Z,4.60
2023-01-19T22:27:37.364Z,4.60
2023-01-19T22:31:19.293Z,4.60
2023-01-19T22:35:01.045Z,4.60
2023-01-19T22:38:43.535Z,4.60
2023-01-19T22:42:25.214Z,4.50
2023-01-19T22:46:08.758Z,4.40
2023-01-19T22:49:50.673Z,4.40
2023-01-19T22:53:32.844Z,4.30
2023-01-19T22:57:14.517Z,4.30
2023-01-19T23:00:56.583Z,4.30
2023-01-19T23:04:39.422Z,4.30
2023-01-19T23:08:21.108Z,4.20
2023-01-19T23:12:03.101Z,4.20
2023-01-19T23:15:44.793Z,4.20
2023-01-19T23:19:26.596Z,4.20
2023-01-19T23:23:08.273Z,4.10
2023-01-19T23:26:50.609Z,4.10
2023-01-19T23:30:32.456Z,4.00
2023-01-19T23:34:14.590Z,4.00
2023-01-19T23:37:56.338Z,3.90
2023-01-19T23:41:39.403Z,3.90
2023-01-19T23:45:21.152Z,3.90
2023-01-19T23:49:02.846Z,3.90
2023-01-19T23:52:44.571Z,3.90
2023-01-19T23:56:28.305Z,3.90
